createdAt,value
2022-08-12T00:03:03.068Z,95.67
2022-08-12T00:06:24.392Z,96.68
2022-08-12T00:09:44.631Z,100.00
2022-08-12T00:13:09.778Z,100.00
2022-08-12T00:16:30.098Z,100.00
2022-08-12T00:19:50.335Z,100.00
2022-08-12T00:23:11.283Z,100.00
2022-08-12T00:26:35.427Z,100.00
2022-08-12T00:29:56.241Z,100.00
2022-08-12T00:33:17.120Z,100.00
2022-08-12T00:36:46.248Z,100.00
2022-08-12T00:40:12.020Z,100.00
2022-08-12T00:43:16.259Z,100.00
2022-08-12T00:46:32.622Z,99.43
2022-08-12T00:49:35.570Z,100.00
2022-08-12T00:52:37.109Z,99.92
2022-08-12T00:55:44.293Z,100.00
2022-08-12T00:58:47.828Z,100.00
2022-08-12T01:02:10.269Z,98.24
2022-08-12T01:05:35.684Z,100.00
2022-08-12T01:08:57.535Z,100.00
2022-08-12T01:12:00.390Z,99.87
2022-08-12T01:15:02.286Z,98.24
2022-08-12T01:18:05.648Z,99.52
2022-08-12T01:21:13.530Z,100.00
2022-08-12T01:24:33.931Z,100.00
2022-08-12T01:27:39.113Z,100.00
2022-08-12T01:30:44.124Z,100.00
2022-08-12T01:34:35.827Z,100.00
2022-08-12T01:37:31.314Z,100.00
2022-08-12T01:40:38.181Z,100.00
2022-08-12T01:43:42.300Z,100.00
2022-08-12T01:46:56.141Z,100.00
2022-08-12T01:50:26.242Z,100.00
2022-08-12T01:53:50.639Z,100.00
2022-08-12T01:57:03.686Z,98.78
2022-08-12T02:00:12.137Z,100.00
2022-08-12T02:03:55.430Z,100.00
2022-08-12T02:07:26.618Z,100.00
2022-08-12T02:10:51.920Z,99.37
2022-08-12T02:14:13.139Z,100.00
2022-08-12T02:17:55.382Z,100.00
2022-08-12T02:21:05.539Z,100.00
2022-08-12T02:24:13.242Z,100.00
2022-08-12T02:27:17.305Z,100.00
2022-08-12T02:30:22.522Z,100.00
2022-08-12T02:33:24.185Z,100.00
2022-08-12T02:36:26.263Z,100.00
2022-08-12T02:39:30.550Z,100.00
2022-08-12T02:42:35.020Z,100.00
2022-08-12T02:45:47.925Z,100.00
2022-08-12T02:49:00.854Z,100.00
2022-08-12T02:52:03.187Z,100.00
2022-08-12T02:55:34.150Z,100.00
2022-08-12T02:58:36.269Z,100.00
2022-08-12T03:01:49.650Z,100.00
2022-08-12T03:04:56.400Z,100.00
2022-08-12T03:08:04.358Z,100.00
2022-08-12T03:11:25.294Z,100.00
2022-08-12T03:14:30.043Z,100.00
2022-08-12T03:17:38.436Z,100.00
2022-08-12T03:20:41.032Z,100.00
2022-08-12T03:23:45.804Z,100.00
2022-08-12T03:26:48.358Z,100.00
2022-08-12T03:29:51.868Z,100.00
2022-08-12T03:32:54.661Z,100.00
2022-08-12T03:35:59.530Z,100.00
2022-08-12T03:39:18.846Z,100.00
2022-08-12T03:42:42.704Z,100.00
2022-08-12T03:46:03.557Z,100.00
2022-08-12T03:49:24.273Z,100.00
2022-08-12T03:52:44.146Z,100.00
2022-08-12T03:56:03.903Z,100.00
2022-08-12T03:59:25.690Z,100.00
2022-08-12T04:02:28.306Z,100.00
2022-08-12T04:05:54.750Z,100.00
2022-08-12T04:08:58.261Z,100.00
2022-08-12T04:12:18.997Z,100.00
2022-08-12T04:15:25.759Z,100.00
2022-08-12T04:18:27.973Z,100.00
2022-08-12T04:21:31.866Z,100.00
2022-08-12T04:24:35.848Z,100.00
2022-08-12T04:27:37.718Z,100.00
2022-08-12T04:30:43.150Z,100.00
2022-08-12T04:33:45.798Z,100.00
2022-08-12T04:36:47.306Z,100.00
2022-08-12T04:39:49.921Z,100.00
2022-08-12T04:42:52.043Z,100.00
2022-08-12T04:45:53.470Z,100.00
2022-08-12T04:48:55.102Z,100.00
2022-08-12T04:51:59.414Z,100.00
2022-08-12T04:55:01.663Z,100.00
2022-08-12T04:58:03.368Z,100.00
2022-08-12T05:01:05.294Z,100.00
2022-08-12T05:04:09.249Z,100.00
2022-08-12T05:07:11.648Z,100.00
2022-08-12T05:10:13.517Z,100.00
2022-08-12T05:13:23.328Z,100.00
2022-08-12T05:16:30.968Z,100.00
2022-08-12T05:19:35.074Z,100.00
2022-08-12T05:22:41.593Z,100.00
2022-08-12T05:25:45.805Z,100.00
2022-08-12T05:28:47.357Z,100.00
2022-08-12T05:31:52.515Z,100.00
2022-08-12T05:34:54.036Z,100.00
2022-08-12T05:38:14.401Z,100.00
2022-08-12T05:41:21.660Z,100.00
2022-08-12T05:44:23.110Z,100.00
2022-08-12T05:47:24.571Z,100.00
2022-08-12T05:50:48.510Z,100.00
2022-08-12T05:53:51.463Z,100.00
2022-08-12T05:56:53.774Z,100.00
2022-08-12T05:59:55.595Z,100.00
2022-08-12T06:03:01.594Z,100.00
2022-08-12T06:06:04.471Z,100.00
2022-08-12T06:09:06.023Z,100.00
2022-08-12T06:12:07.817Z,100.00
2022-08-12T06:15:09.740Z,100.00
2022-08-12T06:18:14.078Z,100.00
2022-08-12T06:21:23.275Z,100.00
2022-08-12T06:24:28.527Z,100.00
2022-08-12T06:27:29.936Z,98.39
2022-08-12T06:30:37.884Z,100.00
2022-08-12T06:33:55.735Z,99.27
2022-08-12T06:37:02.934Z,97.52
2022-08-12T06:40:05.014Z,96.51
2022-08-12T06:43:07.000Z,95.70
2022-08-12T06:46:09.713Z,84.54
2022-08-12T06:49:13.141Z,83.54
2022-08-12T06:52:14.509Z,83.65
2022-08-12T06:55:19.571Z,83.26
2022-08-12T06:58:23.999Z,81.99
2022-08-12T07:01:26.397Z,81.61
2022-08-12T07:04:43.219Z,78.03
2022-08-12T07:07:47.811Z,77.23
2022-08-12T07:10:57.274Z,77.34
2022-08-12T07:14:11.533Z,75.57
2022-08-12T07:17:14.913Z,76.93
2022-08-12T07:20:42.670Z,77.51
2022-08-12T07:23:43.441Z,66.53
2022-08-12T07:26:44.959Z,65.09
2022-08-12T07:30:03.826Z,63.48
2022-08-12T07:33:09.263Z,61.64
2022-08-12T07:36:13.918Z,59.91
2022-08-12T07:39:15.593Z,58.48
2022-08-12T07:42:17.173Z,60.61
2022-08-12T07:45:24.468Z,60.49
2022-08-12T07:48:26.684Z,60.96
2022-08-12T07:51:29.192Z,62.54
2022-08-12T07:54:30.696Z,60.05
2022-08-12T07:57:32.841Z,56.22
2022-08-12T08:00:37.618Z,55.69
2022-08-12T08:03:59.139Z,54.21
2022-08-12T08:07:01.759Z,54.16
2022-08-12T08:10:07.248Z,55.01
2022-08-12T08:13:11.797Z,55.00
2022-08-12T08:16:16.392Z,53.60
2022-08-12T08:19:23.691Z,51.99
2022-08-12T08:22:33.461Z,55.47
2022-08-12T08:25:44.866Z,51.50
2022-08-12T08:28:46.432Z,50.86
2022-08-12T08:31:58.608Z,49.32
2022-08-12T08:35:00.077Z,50.65
2022-08-12T08:38:17.636Z,49.66
2022-08-12T08:42:17.639Z,49.37
2022-08-12T08:45:15.923Z,50.46
2022-08-12T08:48:17.834Z,48.60
2022-08-12T08:51:19.377Z,46.50
2022-08-12T08:54:20.831Z,46.33
2022-08-12T08:57:22.493Z,47.15
2022-08-12T09:00:30.311Z,44.98
2022-08-12T09:05:07.503Z,45.00
2022-08-12T09:07:00.608Z,43.82
2022-08-12T09:10:30.538Z,43.86
2022-08-12T09:14:12.014Z,43.77
2022-08-12T09:16:56.300Z,43.55
2022-08-12T09:19:58.472Z,43.87
2022-08-12T09:23:07.749Z,41.32
2022-08-12T09:26:28.291Z,40.92
2022-08-12T09:30:10.445Z,41.48
2022-08-12T09:33:04.573Z,40.11
2022-08-12T09:36:14.574Z,39.17
2022-08-12T09:40:05.163Z,38.13
2022-08-12T09:43:16.919Z,39.17
2022-08-12T09:46:22.146Z,39.30
2022-08-12T09:49:26.815Z,39.39
2022-08-12T09:52:32.156Z,37.28
2022-08-12T09:56:06.596Z,38.10
2022-08-12T09:59:00.197Z,37.68
2022-08-12T10:02:45.561Z,37.93
2022-08-12T10:06:26.415Z,37.93
2022-08-12T10:08:52.443Z,37.03
2022-08-12T10:12:13.774Z,37.28
2022-08-12T10:16:02.429Z,37.04
2022-08-12T10:18:51.613Z,36.26
2022-08-12T10:21:56.789Z,35.56
2022-08-12T10:25:18.207Z,35.15
2022-08-12T10:28:39.178Z,34.01
2022-08-12T10:32:15.641Z,33.87
2022-08-12T10:35:02.403Z,35.62
2022-08-12T10:38:34.891Z,34.54
2022-08-12T10:41:57.347Z,34.15
2022-08-12T10:45:03.773Z,34.10
2022-08-12T10:48:21.088Z,34.34
2022-08-12T10:52:02.850Z,32.60
2022-08-12T10:54:53.355Z,32.64
2022-08-12T10:58:14.065Z,32.07
2022-08-12T11:01:49.014Z,32.50
2022-08-12T11:04:49.672Z,32.76
2022-08-12T11:08:37.663Z,31.52
2022-08-12T11:12:35.593Z,31.47
2022-08-12T11:14:50.632Z,32.90
2022-08-12T11:17:54.944Z,33.10
2022-08-12T11:20:59.223Z,31.75
2022-08-12T11:24:01.756Z,30.83
2022-08-12T11:27:07.992Z,30.17
2022-08-12T11:30:30.933Z,30.63
2022-08-12T11:34:06.237Z,31.09
2022-08-12T11:36:56.271Z,30.70
2022-08-12T11:40:00.082Z,30.08
2022-08-12T11:43:18.576Z,29.61
2022-08-12T11:46:21.098Z,30.37
2022-08-12T11:49:31.787Z,28.82
2022-08-12T11:52:54.997Z,29.91
2022-08-12T11:55:55.555Z,30.15
2022-08-12T12:02:20.677Z,28.84
2022-08-12T12:05:22.697Z,28.89
2022-08-12T12:08:37.446Z,28.00
2022-08-12T12:11:48.829Z,29.04
2022-08-12T12:14:55.035Z,27.73
2022-08-12T12:17:57.384Z,28.17
2022-08-12T12:21:04.827Z,28.22
2022-08-12T12:24:09.767Z,29.12
2022-08-12T12:27:11.267Z,28.27
2022-08-12T12:30:29.954Z,28.68
2022-08-12T12:33:46.246Z,29.27
2022-08-12T12:36:54.965Z,30.10
2022-08-12T12:39:59.466Z,30.79
2022-08-12T12:43:05.072Z,31.08
2022-08-12T12:46:07.203Z,31.01
2022-08-12T12:49:10.942Z,29.84
2022-08-12T12:52:18.905Z,30.46
2022-08-12T12:55:23.504Z,29.93
2022-08-12T12:58:34.120Z,29.43
2022-08-12T13:01:42.119Z,29.58
2022-08-12T13:04:43.938Z,30.05
2022-08-12T13:07:54.712Z,30.15
2022-08-12T13:11:04.726Z,30.04
2022-08-12T13:14:12.586Z,30.50
2022-08-12T13:18:02.201Z,29.85
2022-08-12T13:20:59.210Z,29.59
2022-08-12T13:24:09.952Z,30.42
2022-08-12T13:27:15.356Z,28.53
2022-08-12T13:30:20.328Z,30.08
2022-08-12T13:33:28.447Z,28.68
2022-08-12T13:36:30.806Z,28.58
2022-08-12T13:39:32.901Z,28.57
2022-08-12T13:42:34.634Z,29.14
2022-08-12T13:45:36.589Z,29.60
2022-08-12T13:48:38.442Z,28.62
2022-08-12T13:51:42.046Z,28.46
2022-08-12T13:54:47.563Z,29.23
2022-08-12T13:58:00.100Z,28.61
2022-08-12T14:01:05.493Z,28.81
2022-08-12T14:04:12.364Z,28.82
2022-08-12T14:07:14.095Z,29.15
2022-08-12T14:10:50.929Z,28.64
2022-08-12T14:14:03.754Z,28.73
2022-08-12T14:17:09.880Z,28.83
2022-08-12T14:20:14.638Z,28.73
2022-08-12T14:24:05.569Z,28.27
2022-08-12T14:26:41.476Z,28.42
2022-08-12T14:30:05.892Z,29.30
2022-08-12T14:33:09.144Z,28.28
2022-08-12T14:36:12.935Z,27.79
2022-08-12T14:39:17.407Z,28.19
2022-08-12T14:42:19.902Z,27.67
2022-08-12T14:45:22.802Z,28.14
2022-08-12T14:48:25.284Z,29.15
2022-08-12T14:52:39.164Z,28.96
2022-08-12T14:58:13.526Z,28.97
2022-08-12T15:01:33.777Z,30.10
2022-08-12T15:04:35.856Z,28.76
2022-08-12T15:07:49.451Z,27.01
2022-08-12T15:10:54.647Z,27.75
2022-08-12T15:13:56.180Z,27.22
2022-08-12T15:17:00.702Z,27.75
2022-08-12T15:20:31.511Z,28.78
2022-08-12T15:23:29.278Z,29.22
2022-08-12T15:26:40.915Z,29.60
2022-08-12T15:29:42.502Z,29.92
2022-08-12T15:32:48.680Z,30.02
2022-08-12T15:40:51.157Z,31.16
2022-08-12T15:44:36.785Z,31.31
2022-08-12T15:47:18.046Z,29.95
2022-08-12T15:50:29.269Z,28.89
2022-08-12T15:53:53.441Z,27.79
2022-08-12T15:56:56.463Z,27.74
2022-08-12T16:00:06.705Z,27.37
2022-08-12T16:03:14.281Z,28.06
2022-08-12T16:06:36.398Z,27.72
2022-08-12T16:09:56.289Z,27.41
2022-08-12T16:13:18.106Z,27.60
2022-08-12T16:16:27.447Z,27.79
2022-08-12T16:20:03.978Z,27.73
2022-08-12T16:23:26.641Z,28.28
2022-08-12T16:26:34.882Z,27.83
2022-08-12T16:29:52.905Z,27.32
2022-08-12T16:32:58.207Z,27.48
2022-08-12T16:36:00.214Z,27.05
2022-08-12T16:39:03.590Z,28.08
2022-08-12T16:42:05.539Z,28.87
2022-08-12T16:45:09.050Z,29.26
2022-08-12T16:48:33.734Z,28.95
2022-08-12T16:51:40.394Z,29.79
2022-08-12T16:54:44.040Z,30.04
2022-08-12T16:57:48.586Z,30.35
2022-08-12T17:00:51.474Z,28.96
2022-08-12T17:04:09.158Z,28.89
2022-08-12T17:07:19.592Z,30.41
2022-08-12T17:10:35.883Z,29.78
2022-08-12T17:13:42.814Z,30.26
2022-08-12T17:16:55.369Z,29.82
2022-08-12T17:20:35.409Z,29.80
2022-08-12T17:23:28.463Z,30.04
2022-08-12T17:26:53.641Z,30.02
2022-08-12T17:30:01.958Z,30.18
2022-08-12T17:33:06.925Z,30.40
2022-08-12T17:36:10.592Z,30.88
2022-08-12T17:39:12.368Z,30.86
2022-08-12T17:42:34.642Z,31.41
2022-08-12T17:45:42.259Z,31.17
2022-08-12T17:48:55.027Z,32.06
2022-08-12T17:52:02.528Z,31.50
2022-08-12T17:55:06.333Z,31.95
2022-08-12T17:58:37.056Z,31.99
2022-08-12T18:01:43.709Z,32.37
2022-08-12T18:05:04.544Z,32.17
2022-08-12T18:08:10.992Z,31.88
2022-08-12T18:12:06.088Z,32.30
2022-08-12T18:15:01.046Z,32.91
2022-08-12T18:18:03.871Z,33.57
2022-08-12T18:21:09.029Z,33.54
2022-08-12T18:24:22.025Z,34.16
2022-08-12T18:27:44.814Z,33.50
2022-08-12T18:30:52.489Z,34.46
2022-08-12T18:34:00.771Z,36.05
2022-08-12T18:37:26.825Z,34.32
2022-08-12T18:40:46.545Z,34.67
2022-08-12T18:43:59.908Z,35.79
2022-08-12T18:47:05.496Z,35.44
2022-08-12T18:50:12.551Z,36.59
2022-08-12T18:54:04.779Z,38.66
2022-08-12T18:56:39.115Z,38.19
2022-08-12T19:00:02.628Z,37.52
2022-08-12T19:03:06.170Z,36.67
2022-08-12T19:06:27.207Z,37.53
2022-08-12T19:09:39.136Z,38.28
2022-08-12T19:13:23.774Z,39.08
2022-08-12T19:16:26.921Z,39.44
2022-08-12T19:19:41.568Z,38.61
2022-08-12T19:22:44.037Z,36.31
2022-08-12T19:26:03.282Z,36.93
2022-08-12T19:29:07.352Z,38.15
2022-08-12T19:32:12.248Z,38.77
2022-08-12T19:38:38.114Z,39.91
2022-08-12T19:42:00.398Z,40.24
2022-08-12T19:45:04.839Z,40.93
2022-08-12T19:48:13.380Z,41.37
2022-08-12T19:51:33.199Z,41.55
2022-08-12T19:54:35.602Z,41.90
2022-08-12T19:57:42.434Z,42.14
2022-08-12T20:00:46.001Z,42.92
2022-08-12T20:03:57.640Z,42.89
2022-08-12T20:07:01.203Z,42.75
2022-08-12T20:10:06.285Z,42.39
2022-08-12T20:13:18.402Z,43.27
2022-08-12T20:16:52.831Z,43.07
2022-08-12T20:20:17.487Z,44.52
2022-08-12T20:23:50.518Z,45.46
2022-08-12T20:26:46.575Z,45.39
2022-08-12T20:29:54.448Z,46.27
2022-08-12T20:32:59.360Z,47.37
2022-08-12T20:36:13.915Z,48.93
2022-08-12T20:39:52.252Z,48.02
2022-08-12T20:42:50.547Z,49.70
2022-08-12T20:45:57.982Z,51.07
2022-08-12T20:49:14.807Z,51.72
2022-08-12T20:52:19.335Z,53.72
2022-08-12T20:55:21.895Z,53.50
2022-08-12T20:58:44.109Z,52.94
2022-08-12T21:01:48.595Z,54.50
2022-08-12T21:05:16.282Z,58.68
2022-08-12T21:08:22.223Z,59.68
2022-08-12T21:11:24.391Z,55.28
2022-08-12T21:14:53.626Z,58.18
2022-08-12T21:18:11.343Z,63.72
2022-08-12T21:21:46.952Z,59.74
2022-08-12T21:24:46.544Z,60.79
2022-08-12T21:27:58.635Z,65.12
2022-08-12T21:32:35.473Z,60.56
2022-08-12T21:34:29.299Z,63.52
2022-08-12T21:37:31.822Z,67.84
2022-08-12T21:40:52.691Z,68.17
2022-08-12T21:43:55.037Z,66.22
2022-08-12T21:47:20.514Z,68.90
2022-08-12T21:50:26.059Z,69.85
2022-08-12T21:54:06.438Z,71.92
2022-08-12T21:56:55.594Z,69.04
2022-08-12T21:59:57.126Z,72.77
2022-08-12T22:03:17.223Z,72.46
2022-08-12T22:06:43.450Z,66.57
2022-08-12T22:09:46.167Z,72.80
2022-08-12T22:12:47.881Z,80.01
2022-08-12T22:15:52.508Z,73.46
2022-08-12T22:18:57.095Z,75.40
2022-08-12T22:22:01.259Z,73.32
2022-08-12T22:25:09.321Z,74.65
2022-08-12T22:28:54.485Z,83.92
2022-08-12T22:31:58.308Z,83.61
2022-08-12T22:35:24.144Z,81.23
2022-08-12T22:38:30.847Z,82.87
2022-08-12T22:41:56.907Z,84.35
2022-08-12T22:45:17.909Z,77.80
2022-08-12T22:48:26.580Z,79.56
2022-08-12T22:51:59.859Z,86.49
2022-08-12T22:55:02.276Z,82.32
2022-08-12T22:58:06.156Z,85.36
2022-08-12T23:01:08.080Z,91.51
2022-08-12T23:04:15.460Z,90.04
2022-08-12T23:07:36.399Z,91.65
2022-08-12T23:10:51.313Z,86.66
2022-08-12T23:13:56.681Z,86.39
2022-08-12T23:16:58.229Z,86.83
2022-08-12T23:20:01.598Z,88.29
2022-08-12T23:23:09.181Z,81.60
2022-08-12T23:26:10.957Z,87.77
2022-08-12T23:29:29.582Z,91.02
2022-08-12T23:32:38.569Z,93.33
2022-08-12T23:35:54.051Z,89.99
2022-08-12T23:40:13.678Z,94.00
2022-08-12T23:42:31.326Z,95.65
2022-08-12T23:45:34.097Z,98.16
2022-08-12T23:48:37.344Z,100.00
2022-08-12T23:51:39.020Z,100.00
2022-08-12T23:54:46.825Z,97.41
2022-08-12T23:58:20.959Z,95.40
